Tropical Cyclones
[Index]
Main Index Home Page Stock Weather Photos Extreme Storms Discussion Storm News and Storm Chasing Reports Tropical Cyclones / Hurricanes / Typhoons Weather Data and Links Wild Fires / Bushfires Weather Observation Techniques Weather Picture Catalogue Tornado Pictures and Reports Stock Video Footage and DVDs for sale
Season 2008-2009 Tropical Cyclone ASMA Track Map
Season 2008-2009 Summaries: [BoM-AU] [JTWC-AU] [JTWC-SIO] [JTWC-SPAC] [JTWC-SH]
<<- Previous TC | JTWC 2008-2009 Season | Next TC ->>

click for intensity scale information  Lat/long Grid: Show Hide

 Date Labels: Show Hide

Joint Typhoon Warning Centre Cyclone Data

Name: ASMA

15 Oct 2008 18:00 UTC to 24 Oct 2008 12:00 UTC

    date/time    lat    long     hPa   cat  kts
2008-10-15 18    5.4    70.4    1007         20          
2008-10-16 00    5.6    70.2    1004         25          
2008-10-16 06    5.6    69.8    1004         25          
2008-10-16 12    5.5    69.4    1000         30          
2008-10-16 18    5.6    69.0     996         35          
2008-10-17 00    5.9    68.8     994         35          
2008-10-17 06    6.3    68.7     996         35          
2008-10-17 12    6.7    68.6     996         35          
2008-10-17 18    7.1    68.6    1000         30          
2008-10-18 00    7.7    68.4    1000         30          
2008-10-18 06    8.2    68.1    1000         30          
2008-10-18 12    8.8    67.5    1000         30          
2008-10-18 18    9.3    66.8    1000         30          
2008-10-19 00    9.9    65.9     996         35          
2008-10-19 06   10.5    65.0     996         35          
2008-10-19 12   11.1    64.1     996         35          
2008-10-19 18   11.7    63.2     993    1    40          
2008-10-20 00   12.2    62.6     989    1    45          
2008-10-20 06   12.4    62.0     985    1    50          
2008-10-20 12   12.0    61.6     985    1    50          
2008-10-20 18   12.2    61.0     989    1    45          
2008-10-21 00   12.1    60.2     996         35          
2008-10-21 06   12.0    59.4     996         35          
2008-10-21 12   11.7    58.4    1000         30          
2008-10-21 18   11.4    57.3    1004         25          
2008-10-22 00   11.0    56.1    1004         25          
2008-10-22 06   11.1    54.5    1004         25          
2008-10-22 12   11.1    52.6    1004         25          
2008-10-22 18   10.7    51.5    1004         25          
2008-10-23 00   10.7    50.8    1004         25          
2008-10-23 06   10.7    50.1    1004         25          
2008-10-23 12   11.3    49.0    1004         25          
2008-10-23 18   11.8    48.1    1004         25          
2008-10-24 00   12.2    46.5    1004         25          
2008-10-24 06   11.8    44.5    1004         25          
2008-10-24 12   11.9    43.5    1007         20          
Winds are 1-min average.

Tropical cyclone tracks developed by Michael Bath using data from the Joint Typhoon Warning Centre Best Tracks and Google Maps.


[Australian Severe Weather index] [Copyright Notice] [Email Contacts] [Search This Site] [Privacy Policy]
Document: tropical_cyclone_asma.htm Updated: 28 June 2017